Station: Ernabella/Pukatja

  Atmospheric Gas Attenuation - ITU Rec 676-11   --------------- db/100km ---------------
Date Time Temp RH % AH g/m3 Dew Point Wind Direction Speed kph Gust kph Barometer mB Rainfall Since 9am 24GHz 47GHz 76GHz 122GHz 134GHz 241GHz
15 00:50 14.4 59 7.29 6.5 15 22 1022 0 16.8 24.0 34.8 90.9 81.5 279.3
15 00:40 14.3 63 7.74 7.4 11 15 1021.9 0 17.7 24.7 36.5 95.6 87.3 299.6
15 00:30 13.6 66 7.77 7.4 7 13 1022.1 0 17.8 25.0 37.0 96.8 88.5 303.7
15 00:20 13.4 68 7.91 7.6 7 7 1021.9 0 18.1 25.2 37.6 98.5 90.5 310.7
15 00:10 13.9 64 7.67 7.2 6 6 1021.9 0 17.6 24.7 36.5 95.4 86.9 298.0
15 00:00 14.1 63 7.65 7.2 6 11 1022.1 0 17.5 24.6 36.3 95.0 86.4 296.4
14 23:50 14.5 63 7.84 7.5 11 13 1021.7 0 17.9 24.8 36.8 96.4 88.3 303.3
14 23:40 14.3 63 7.74 7.4 4 6 1021.9 0 17.7 24.7 36.5 95.6 87.3 299.6
14 23:30 15 61 7.82 7.5 9 13 1022.2 0 17.9 24.6 36.5 95.6 87.6 300.6
14 23:20 15.1 60 7.74 7.4 11 11 1022.3 0 17.7 24.5 36.2 94.7 86.4 296.7
14 23:10 15.4 60 7.88 7.7 11 13 1022.6 0 18.0 24.6 36.6 95.8 87.9 301.9
14 23:00 15.3 60 7.84 7.6 11 15 1022.7 0 17.9 24.6 36.5 95.5 87.5 300.5
14 22:50 15.6 59 7.85 7.6 11 11 1022.6 0 17.9 24.5 36.4 95.3 87.3 299.8
14 22:40 15.9 59 7.99 7.9 13 17 1022.7 0 18.2 24.7 36.8 96.4 88.7 304.9
14 22:30 16 58 7.9 7.7 13 19 1022.7 0 18.0 24.5 36.4 95.3 87.5 300.5
14 22:20 15.9 59 7.99 7.9 11 13 1022.3 0 18.2 24.7 36.8 96.3 88.7 304.8
14 22:10 16.1 59 8.09 8.1 9 9 1022.2 0 18.4 24.8 37.1 97.1 89.7 308.4
14 22:00 16.4 58 8.09 8.1 13 20 1022.3 0 18.4 24.7 36.9 96.7 89.4 307.3
14 21:50 16.6 58 8.19 8.3 13 17 1022.4 0 18.6 24.8 37.2 97.5 90.5 310.9
14 21:40 16.6 58 8.19 8.3 17 19 1022.2 0 18.6 24.8 37.2 97.5 90.4 310.9
14 21:30 16.3 59 8.19 8.3 13 17 1022.1 0 18.6 24.9 37.4 97.9 90.8 312.0
14 21:20 16.3 60 8.32 8.5 17 20 1021.9 0 18.9 25.1 37.9 99.2 92.4 317.7
14 21:10 16.1 60 8.22 8.3 9 11 1022 0 18.7 25.0 37.6 98.4 91.4 314.1
14 21:00 16.4 59 8.23 8.4 13 17 1021.9 0 18.7 24.9 37.5 98.1 91.1 313.3
14 20:50 16.4 59 8.23 8.4 15 15 1021.8 0 18.7 24.9 37.5 98.1 91.1 313.3
14 20:40 16.7 58 8.24 8.4 15 15 1021.7 0 18.7 24.8 37.4 97.8 90.9 312.6
14 20:30 16.7 58 8.24 8.4 15 20 1021.5 0 18.7 24.8 37.3 97.8 90.9 312.5
14 20:20 16.8 59 8.43 8.8 17 20 1021.9 0 19.1 25.1 38.0 99.7 93.2 320.6
14 20:10 16.7 58 8.24 8.4 19 20 1021.5 0 18.7 24.8 37.3 97.8 90.9 312.5
14 20:00 16.8 58 8.29 8.5 13 17 1021.5 0 18.8 24.9 37.5 98.2 91.4 314.3
14 19:50 16.8 57 8.15 8.2 15 15 1021.5 0 18.5 24.6 37.0 96.8 89.7 308.1
14 19:40 17 57 8.25 8.4 17 20 1021.5 0 18.7 24.7 37.2 97.6 90.7 311.8
14 19:30 16.9 58 8.34 8.6 17 20 1021.4 0 18.9 24.9 37.6 98.6 91.9 316.1
14 19:20 17.1 57 8.3 8.5 20 22 1021.5 0 18.8 24.8 37.4 97.9 91.2 313.6
14 19:10 17.2 56 8.2 8.4 22 24 1021.4 0 18.6 24.6 37.0 96.8 89.8 308.8
14 19:00 17.4 56 8.3 8.5 19 24 1021.2 0 18.8 24.7 37.2 97.6 90.8 312.3
14 18:50 17.5 56 8.35 8.6 20 24 1021.1 0 18.9 24.7 37.4 97.9 91.3 314.1
14 18:40 17.7 56 8.45 8.8 19 20 1021.1 0 19.1 24.8 37.7 98.7 92.3 317.7
14 18:30 17.6 56 8.4 8.7 13 20 1021 0 19.0 24.8 37.5 98.3 91.8 315.9
14 18:20 17.5 55 8.2 8.4 13 15 1020.9 0 18.6 24.5 36.8 96.4 89.4 307.5
14 18:10 17.9 55 8.4 8.7 13 15 1020.8 0 19.0 24.7 37.4 97.9 91.5 314.6
14 18:00 18.2 54 8.39 8.7 13 15 1020.6 0 18.9 24.6 37.2 97.4 91.0 313.0
14 17:50 18.4 52 8.18 8.4 13 15 1020.5 0 18.5 24.2 36.3 95.1 88.1 303.1
14 17:40 18.9 50 8.1 8.3 11 13 1020.5 0 18.3 24.0 35.8 93.7 86.6 297.8
14 17:30 19.1 49 8.03 8.1 13 19 1020.3 0 18.1 23.8 35.4 92.8 85.5 294.0
14 17:20 19.3 49 8.13 8.3 9 11 1020.1 0 18.3 23.9 35.7 93.5 86.5 297.5
14 17:10 19.7 47 7.98 8.1 13 15 1020 0 18.0 23.6 35.0 91.6 84.3 289.7
14 17:00 20 46 7.95 8 9 15 1019.9 0 17.9 23.4 34.7 90.9 83.6 287.3
14 16:50 19.8 46 7.86 7.9 9 11 1019.7 0 17.7 23.4 34.5 90.3 82.7 284.2
14 16:40 20.1 44 7.65 7.5 13 15 1019.7 0 17.3 23.0 33.6 87.9 79.9 274.5
14 16:30 20.3 45 7.91 8 15 20 1019.8 0 17.8 23.3 34.5 90.2 82.8 284.6
14 16:20 20.5 45 8.01 8.2 19 20 1019.7 0 18.0 23.4 34.7 90.9 83.8 288.0
14 16:10 20.5 44 7.83 7.8 13 15 1019.7 0 17.6 23.1 34.1 89.2 81.6 280.6
14 16:00 20.4 45 7.96 8.1 17 26 1019.7 0 17.9 23.3 34.6 90.6 83.3 286.3
14 15:50 20.2 46 8.04 8.2 17 20 1019.7 0 18.1 23.5 35.0 91.5 84.4 290.3
14 15:40 21 44 8.06 8.3 19 20 1019.5 0 18.1 23.3 34.7 90.8 83.8 288.3
14 15:30 20.3 45 7.91 8 17 24 1019.4 0 17.8 23.3 34.4 90.2 82.8 284.5
14 15:20 20.5 46 8.18 8.5 20 24 1019.6 0 18.4 23.6 35.3 92.6 85.8 295.1
14 15:10 20.8 44 7.97 8.1 17 20 1019.4 0 17.9 23.3 34.4 90.2 83.0 285.2
14 15:00 21 44 8.06 8.3 19 26 1019.5 0 18.1 23.3 34.7 90.8 83.8 288.3
14 14:50 20.6 47 8.41 8.9 13 17 1019.3 0 18.9 23.9 36.1 94.6 88.4 304.3
14 14:40 19.8 48 8.2 8.5 15 20 1019.3 0 18.5 23.8 35.7 93.5 86.8 298.4
14 14:30 19.9 48 8.25 8.6 19 22 1019.4 0 18.6 23.9 35.8 93.9 87.3 300.2
14 14:20 19.5 49 8.22 8.5 20 22 1019.4 0 18.5 24.0 35.9 94.1 87.3 300.4
14 14:10 20.3 46 8.09 8.3 17 20 1019.3 0 18.2 23.5 35.1 91.9 84.9 292.0
14 14:00 19.8 48 8.2 8.5 15 22 1019.4 0 18.5 23.8 35.7 93.5 86.8 298.4
14 13:50 19.8 50 8.54 9.1 11 13 1019.2 0 19.2 24.3 37.0 96.9 90.9 312.8
14 13:40 19.3 49 8.13 8.3 11 13 1019 0 18.3 23.9 35.7 93.4 86.4 297.2
14 13:30 19.1 51 8.36 8.7 15 20 1019.4 0 18.8 24.3 36.6 95.9 89.5 307.9
14 13:20 19 53 8.64 9.2 13 15 1019.7 0 19.4 24.7 37.7 98.9 93.1 320.4
14 13:10 18.5 54 8.54 9 19 20 1020.1 0 19.2 24.7 37.6 98.5 92.4 318.2
14 13:00 18.7 55 8.8 9.5 17 24 1020.2 0 19.8 25.1 38.5 100.9 95.5 328.7
14 12:50 18 57 8.75 9.4 19 22 1020.5 0 19.7 25.2 38.6 101.3 95.7 329.5
14 12:40 18.1 57 8.81 9.5 22 24 1020.7 0 19.8 25.3 38.8 101.8 96.4 331.8
14 12:30 18.1 57 8.81 9.5 20 26 1020.8 0 19.8 25.3 38.8 101.8 96.4 331.8
14 12:20 17.6 57 8.55 9 22 24 1020.9 0 19.3 25.0 38.1 99.8 93.7 322.4
14 12:10 17.2 58 8.49 8.9 19 22 1020.7 0 19.2 25.0 38.0 99.7 93.4 321.4
14 12:00 17.2 60 8.79 9.4 24 30 1021 0 19.8 25.5 39.2 102.8 97.2 334.8
14 11:50 16.9 59 8.49 8.8 24 26 1021.2 0 19.2 25.1 38.2 100.1 93.8 322.7
14 11:40 16.7 60 8.53 8.9 24 26 1021.4 0 19.3 25.3 38.5 100.8 94.6 325.3
14 11:30 16.6 61 8.62 9.1 22 30 1021.5 0 19.5 25.4 38.9 101.9 95.8 329.8
14 11:20 16.3 61 8.46 8.8 28 32 1021.8 0 19.2 25.3 38.4 100.6 94.2 324.0
14 11:10 15.9 62 8.4 8.6 26 30 1021.8 0 19.1 25.3 38.4 100.5 93.9 322.9
14 11:00 16.1 61 8.36 8.6 26 32 1021.9 0 19.0 25.2 38.1 99.8 93.2 320.3
14 10:50 16.3 60 8.32 8.5 28 30 1021.8 0 18.9 25.1 37.9 99.2 92.4 317.7
14 10:40 15.7 61 8.16 8.2 24 28 1021.8 0 18.6 25.0 37.5 98.3 91.1 313.0
14 10:30 15.2 61 7.92 7.7 24 30 1021.6 0 18.1 24.7 36.8 96.4 88.6 304.1
14 10:20 15.3 59 7.7 7.3 28 32 1021.8 0 17.6 24.4 35.9 94.0 85.7 294.1
14 10:10 15.4 59 7.75 7.4 20 22 1021.7 0 17.7 24.4 36.1 94.4 86.2 295.9
14 10:00 14.4 61 7.54 7 19 24 1021.4 0 17.3 24.3 35.7 93.4 84.6 290.2
14 09:50 14.6 58 7.26 6.4 19 24 1021.2 0 16.7 23.9 34.5 90.3 80.9 277.1
14 09:40 14.5 55 6.84 5.6 24 30 1021.5 0 15.8 23.3 33.0 86.2 75.8 259.2
14 09:30 14.4 51 6.3 4.4 22 28 1021.2 0 14.7 22.5 31.0 81.0 69.3 236.4
14 09:20 14.3 49 6.02 3.7 20 24 1021.4 0 14.1 22.1 30.1 78.4 66.0 224.9
14 09:10 14.7 46 5.79 3.2 24 28 1021.3 0 13.6 21.6 29.1 75.8 62.9 214.2
14 09:00 15.1 47 6.06 3.9 17 20 1021 0 14.1 21.9 29.9 77.9 65.8 224.3
14 08:50 14.4 49 6.06 3.8 17 19 1021 0 14.2 22.1 30.2 78.6 66.4 226.2
14 08:40 14.4 49 6.06 3.8 13 15 1020.6 0 14.2 22.1 30.2 78.6 66.3 226.1
14 08:30 14.1 50 6.07 3.8 11 15 1020.7 0 14.2 22.2 30.3 79.0 66.7 227.4
14 08:20 14 51 6.15 4 11 13 1020.7 0 14.4 22.3 30.6 79.9 67.8 231.1

Last Refresh: 15-Jun-2024 01:03:02

Bureau of Meteorology